createdAt,value
2023-05-22T00:01:52.946Z,18.81
2023-05-22T00:04:22.445Z,18.82
2023-05-22T00:06:49.597Z,18.79
2023-05-22T00:09:16.451Z,18.71
2023-05-22T00:11:43.392Z,18.70
2023-05-22T00:14:10.110Z,18.62
2023-05-22T00:16:36.820Z,18.64
2023-05-22T00:19:04.071Z,18.52
2023-05-22T00:21:35.217Z,18.53
2023-05-22T00:24:02.392Z,18.45
2023-05-22T00:26:29.393Z,18.38
2023-05-22T00:28:56.083Z,18.28
2023-05-22T00:31:23.570Z,18.34
2023-05-22T00:33:50.372Z,18.32
2023-05-22T00:36:18.813Z,18.21
2023-05-22T00:38:45.584Z,18.27
2023-05-22T00:41:12.260Z,18.29
2023-05-22T00:43:39.498Z,18.22
2023-05-22T00:46:08.082Z,18.22
2023-05-22T00:48:34.939Z,18.13
2023-05-22T00:51:01.836Z,18.04
2023-05-22T00:53:29.375Z,18.01
2023-05-22T00:55:57.926Z,18.04
2023-05-22T00:58:26.655Z,17.85
2023-05-22T01:00:53.533Z,17.83
2023-05-22T01:03:26.688Z,17.81
2023-05-22T01:05:54.555Z,17.86
2023-05-22T01:08:22.032Z,17.79
2023-05-22T01:10:52.794Z,17.78
2023-05-22T01:14:05.755Z,17.75
2023-05-22T01:16:54.863Z,17.73
2023-05-22T01:19:41.898Z,17.59
2023-05-22T01:22:32.668Z,17.60
2023-05-22T01:25:36.620Z,17.49
2023-05-22T01:28:32.518Z,17.35
2023-05-22T01:31:17.725Z,17.32
2023-05-22T01:33:49.658Z,17.46
2023-05-22T01:36:20.584Z,17.40
2023-05-22T01:38:47.893Z,17.28
2023-05-22T01:41:14.650Z,17.47
2023-05-22T01:43:42.238Z,17.49
2023-05-22T01:46:09.076Z,17.49
2023-05-22T01:48:36.379Z,17.52
2023-05-22T01:51:09.560Z,17.46
2023-05-22T01:53:45.644Z,17.52
2023-05-22T01:56:17.245Z,17.42
2023-05-22T01:58:56.796Z,17.26
2023-05-22T02:01:24.540Z,17.34
2023-05-22T02:03:56.780Z,17.38
2023-05-22T02:06:26.080Z,17.43
2023-05-22T02:08:53.377Z,17.34
2023-05-22T02:11:21.877Z,17.18
2023-05-22T02:13:49.336Z,17.13
2023-05-22T02:16:16.142Z,17.16
2023-05-22T02:18:43.321Z,17.29
2023-05-22T02:21:10.306Z,17.30
2023-05-22T02:23:40.896Z,17.25
2023-05-22T02:26:07.816Z,17.32
2023-05-22T02:28:34.552Z,17.18
2023-05-22T02:31:01.372Z,17.27
2023-05-22T02:33:30.161Z,17.27
2023-05-22T02:35:56.917Z,17.31
2023-05-22T02:38:23.595Z,17.30
2023-05-22T02:40:50.312Z,17.33
2023-05-22T02:43:17.019Z,17.25
2023-05-22T02:45:43.699Z,17.19
2023-05-22T02:48:10.556Z,17.30
2023-05-22T02:50:37.492Z,17.33
2023-05-22T02:53:04.438Z,17.33
2023-05-22T02:55:31.373Z,17.49
2023-05-22T02:57:58.043Z,17.41
2023-05-22T03:00:24.786Z,17.39
2023-05-22T03:02:51.689Z,17.34
2023-05-22T03:05:18.651Z,17.29
2023-05-22T03:07:48.206Z,17.42
2023-05-22T03:10:15.707Z,17.28
2023-05-22T03:12:42.486Z,17.25
2023-05-22T03:15:10.019Z,17.30
2023-05-22T03:17:36.816Z,17.21
2023-05-22T03:20:05.608Z,17.17
2023-05-22T03:22:32.710Z,17.18
2023-05-22T03:24:59.388Z,17.16
2023-05-22T03:27:26.458Z,17.17
2023-05-22T03:29:53.523Z,17.11
2023-05-22T03:32:20.188Z,17.14
2023-05-22T03:34:46.889Z,17.13
2023-05-22T03:37:13.593Z,17.11
2023-05-22T03:39:40.317Z,17.09
2023-05-22T03:42:07.107Z,17.11
2023-05-22T03:44:33.876Z,17.28
2023-05-22T03:47:00.674Z,17.14
2023-05-22T03:49:27.497Z,17.06
2023-05-22T03:51:54.189Z,16.87
2023-05-22T03:54:21.338Z,16.91
2023-05-22T03:56:48.041Z,16.95
2023-05-22T03:59:14.726Z,17.05
2023-05-22T04:01:41.536Z,16.96
2023-05-22T04:04:09.818Z,17.08
2023-05-22T04:06:43.634Z,17.17
2023-05-22T04:09:12.054Z,17.05
2023-05-22T04:11:42.652Z,16.92
2023-05-22T04:14:09.693Z,17.01
2023-05-22T04:16:36.491Z,17.01
2023-05-22T04:19:03.693Z,17.02
2023-05-22T04:21:34.610Z,16.88
2023-05-22T04:24:02.480Z,16.95
2023-05-22T04:26:32.550Z,16.97
2023-05-22T04:28:59.294Z,16.93
2023-05-22T04:31:26.397Z,16.94
2023-05-22T04:33:54.803Z,16.96
2023-05-22T04:36:26.341Z,17.04
2023-05-22T04:38:54.297Z,17.04
2023-05-22T04:41:22.821Z,16.98
2023-05-22T04:43:49.725Z,17.01
2023-05-22T04:46:16.556Z,17.02
2023-05-22T04:48:43.315Z,17.07
2023-05-22T04:51:10.154Z,17.11
2023-05-22T04:53:38.850Z,17.10
2023-05-22T04:56:06.526Z,17.25
2023-05-22T04:58:33.528Z,17.24
2023-05-22T05:01:00.462Z,17.19
2023-05-22T05:03:27.793Z,17.25
2023-05-22T05:05:54.816Z,17.32
2023-05-22T05:08:21.757Z,17.29
2023-05-22T05:10:48.485Z,17.39
2023-05-22T05:13:15.167Z,17.45
2023-05-22T05:15:41.919Z,17.62
2023-05-22T05:18:08.862Z,17.59
2023-05-22T05:20:36.120Z,17.70
2023-05-22T05:23:02.816Z,17.80
2023-05-22T05:25:29.627Z,17.83
2023-05-22T05:27:56.690Z,17.74
2023-05-22T05:30:23.620Z,18.01
2023-05-22T05:32:50.376Z,17.96
2023-05-22T05:35:17.128Z,17.94
2023-05-22T05:37:43.837Z,18.01
2023-05-22T05:40:11.349Z,17.98
2023-05-22T05:42:38.213Z,17.97
2023-05-22T05:45:05.555Z,18.12
2023-05-22T05:47:32.637Z,18.25
2023-05-22T05:49:59.534Z,18.19
2023-05-22T05:52:27.412Z,18.28
2023-05-22T05:54:54.141Z,18.39
2023-05-22T05:57:22.236Z,18.48
2023-05-22T05:59:49.270Z,18.61
2023-05-22T06:02:16.399Z,18.66
2023-05-22T06:04:43.420Z,18.67
2023-05-22T06:07:10.128Z,18.71
2023-05-22T06:09:36.818Z,18.80
2023-05-22T06:12:04.174Z,18.69
2023-05-22T06:14:31.041Z,18.79
2023-05-22T06:16:58.053Z,18.82
2023-05-22T06:19:25.007Z,18.89
2023-05-22T06:21:52.216Z,19.03
2023-05-22T06:24:20.075Z,19.08
2023-05-22T06:26:46.778Z,19.10
2023-05-22T06:29:13.428Z,19.23
2023-05-22T06:31:40.244Z,19.22
2023-05-22T06:34:07.211Z,19.21
2023-05-22T06:36:35.041Z,19.29
2023-05-22T06:39:02.606Z,19.22
2023-05-22T06:41:29.570Z,19.28
2023-05-22T06:43:56.266Z,19.29
2023-05-22T06:46:25.960Z,19.53
2023-05-22T06:48:53.416Z,19.72
2023-05-22T06:51:21.639Z,19.64
2023-05-22T06:53:48.549Z,19.71
2023-05-22T06:56:15.229Z,19.90
2023-05-22T06:58:41.938Z,20.07
2023-05-22T07:01:08.735Z,20.18
2023-05-22T07:03:36.053Z,20.20
2023-05-22T07:06:03.390Z,20.22
2023-05-22T07:08:30.721Z,20.18
2023-05-22T07:10:57.779Z,20.44
2023-05-22T07:13:25.154Z,20.50
2023-05-22T07:15:51.946Z,20.46
2023-05-22T07:18:19.367Z,20.70
2023-05-22T07:20:47.320Z,20.66
2023-05-22T07:23:13.990Z,20.86
2023-05-22T07:25:40.855Z,21.06
2023-05-22T07:28:09.302Z,21.04
2023-05-22T07:30:37.823Z,21.36
2023-05-22T07:33:05.509Z,21.38
2023-05-22T07:35:32.502Z,21.47
2023-05-22T07:37:59.221Z,21.72
2023-05-22T07:40:26.713Z,21.90
2023-05-22T07:42:53.689Z,21.64
2023-05-22T07:45:20.439Z,21.65
2023-05-22T07:47:47.413Z,21.76
2023-05-22T07:50:14.087Z,21.89
2023-05-22T07:52:40.825Z,21.91
2023-05-22T07:55:08.414Z,22.09
2023-05-22T07:57:36.522Z,22.04
2023-05-22T08:00:14.043Z,22.21
2023-05-22T08:02:41.906Z,22.37
2023-05-22T08:05:09.774Z,22.39
2023-05-22T08:07:37.214Z,22.52
2023-05-22T08:10:08.828Z,22.83
2023-05-22T08:12:35.614Z,22.86
2023-05-22T08:15:02.293Z,22.90
2023-05-22T08:17:29.004Z,22.93
2023-05-22T08:19:56.172Z,23.15
2023-05-22T08:22:22.891Z,23.06
2023-05-22T08:24:49.653Z,23.08
2023-05-22T08:27:16.349Z,23.05
2023-05-22T08:29:43.009Z,23.19
2023-05-22T08:32:10.511Z,23.32
2023-05-22T08:34:37.203Z,23.46
2023-05-22T08:37:05.541Z,23.68
2023-05-22T08:39:32.452Z,23.47
2023-05-22T08:41:59.626Z,23.41
2023-05-22T08:44:26.431Z,23.36
2023-05-22T08:46:56.803Z,23.42
2023-05-22T08:49:24.536Z,23.45
2023-05-22T08:51:54.914Z,23.54
2023-05-22T08:54:23.177Z,23.68
2023-05-22T08:56:56.879Z,23.65
2023-05-22T08:59:24.666Z,23.70
2023-05-22T09:01:53.052Z,23.62
2023-05-22T09:04:23.341Z,23.62
2023-05-22T09:06:50.871Z,23.60
2023-05-22T09:09:18.417Z,23.59
2023-05-22T09:11:45.121Z,23.34
2023-05-22T09:14:12.315Z,23.66
2023-05-22T09:16:49.282Z,23.74
2023-05-22T09:19:16.630Z,23.82
2023-05-22T09:21:44.602Z,23.79
2023-05-22T09:24:12.469Z,23.83
2023-05-22T09:26:39.818Z,23.71
2023-05-22T09:29:10.013Z,23.54
2023-05-22T09:31:44.466Z,23.71
2023-05-22T09:34:14.480Z,23.75
2023-05-22T09:36:42.168Z,23.80
2023-05-22T09:39:09.749Z,23.73
2023-05-22T09:41:38.746Z,23.64
2023-05-22T09:44:15.611Z,23.56
2023-05-22T09:46:44.703Z,23.68
2023-05-22T09:49:14.160Z,23.57
2023-05-22T09:51:44.196Z,23.61
2023-05-22T09:54:12.537Z,23.62
2023-05-22T09:56:40.476Z,23.78
2023-05-22T09:59:09.831Z,23.74
2023-05-22T10:01:39.217Z,23.75
2023-05-22T10:04:06.842Z,23.65
2023-05-22T10:06:34.947Z,23.67
2023-05-22T10:09:07.396Z,23.70
2023-05-22T10:11:34.483Z,23.69
2023-05-22T10:14:02.974Z,23.72
2023-05-22T10:16:30.743Z,23.82
2023-05-22T10:18:58.621Z,23.95
2023-05-22T10:21:26.113Z,23.91
2023-05-22T10:23:53.993Z,23.96
2023-05-22T10:26:21.605Z,23.95
2023-05-22T10:28:59.776Z,24.13
2023-05-22T10:32:02.352Z,24.14
2023-05-22T10:34:42.808Z,24.21
2023-05-22T10:37:37.600Z,24.32
2023-05-22T10:40:31.372Z,24.69
2023-05-22T10:43:02.932Z,24.52
2023-05-22T10:45:30.285Z,24.85
2023-05-22T10:48:08.066Z,24.86
2023-05-22T10:50:36.013Z,25.02
2023-05-22T10:53:25.535Z,25.12
2023-05-22T10:55:53.717Z,25.14
2023-05-22T10:58:56.341Z,25.34
2023-05-22T11:01:26.037Z,25.47
2023-05-22T11:03:59.854Z,25.57
2023-05-22T11:06:47.149Z,25.62
2023-05-22T11:09:54.618Z,25.53
2023-05-22T11:12:31.384Z,25.70
2023-05-22T11:15:09.514Z,25.68
2023-05-22T11:17:51.800Z,25.90
2023-05-22T11:20:26.071Z,25.83
2023-05-22T11:23:00.771Z,25.78
2023-05-22T11:25:28.958Z,25.77
2023-05-22T11:27:56.492Z,25.82
2023-05-22T11:30:27.454Z,26.00
2023-05-22T11:32:54.638Z,26.15
2023-05-22T11:35:22.532Z,26.27
2023-05-22T11:37:51.566Z,26.51
2023-05-22T11:40:29.824Z,26.55
2023-05-22T11:42:57.158Z,26.59
2023-05-22T11:45:24.180Z,26.43
2023-05-22T11:47:50.946Z,26.70
2023-05-22T11:50:29.228Z,26.98
2023-05-22T11:53:05.220Z,27.07
2023-05-22T11:55:33.565Z,27.06
2023-05-22T11:58:02.309Z,27.05
2023-05-22T12:00:29.695Z,26.99
2023-05-22T12:02:57.038Z,27.01
2023-05-22T12:05:23.750Z,27.09
2023-05-22T12:07:50.572Z,26.90
2023-05-22T12:10:17.295Z,26.80
2023-05-22T12:12:44.173Z,26.87
2023-05-22T12:15:11.747Z,27.27
2023-05-22T12:17:38.864Z,27.18
2023-05-22T12:20:07.591Z,27.34
2023-05-22T12:22:34.415Z,27.59
2023-05-22T12:25:01.219Z,27.22
2023-05-22T12:27:34.529Z,27.39
2023-05-22T12:30:10.721Z,27.52
2023-05-22T12:32:37.552Z,27.57
2023-05-22T12:35:04.852Z,27.60
2023-05-22T12:37:33.689Z,27.64
2023-05-22T12:40:04.386Z,27.63
2023-05-22T12:42:31.268Z,27.76
2023-05-22T12:44:58.433Z,27.61
2023-05-22T12:47:25.650Z,27.62
2023-05-22T12:49:52.704Z,27.83
2023-05-22T12:52:19.602Z,27.97
2023-05-22T12:54:46.432Z,28.18
2023-05-22T12:57:13.139Z,28.03
2023-05-22T12:59:40.112Z,28.11
2023-05-22T13:02:07.358Z,28.08
2023-05-22T13:04:34.285Z,28.14
2023-05-22T13:07:01.220Z,27.78
2023-05-22T13:09:28.134Z,27.85
2023-05-22T13:11:55.357Z,27.82
2023-05-22T13:14:22.115Z,27.69
2023-05-22T13:16:49.396Z,27.83
2023-05-22T13:19:16.512Z,27.64
2023-05-22T13:21:44.388Z,27.61
2023-05-22T13:24:11.202Z,27.72
2023-05-22T13:26:37.946Z,27.88
2023-05-22T13:29:04.707Z,27.99
2023-05-22T13:31:33.985Z,27.85
2023-05-22T13:34:03.106Z,28.08
2023-05-22T13:36:30.460Z,28.31
2023-05-22T13:38:57.253Z,28.33
2023-05-22T13:41:24.292Z,28.44
2023-05-22T13:43:50.941Z,28.52
2023-05-22T13:46:18.460Z,28.46
2023-05-22T13:48:45.242Z,28.41
2023-05-22T13:51:12.012Z,28.45
2023-05-22T13:53:38.920Z,28.47
2023-05-22T13:56:05.891Z,28.52
2023-05-22T13:58:32.579Z,28.72
2023-05-22T14:00:59.315Z,28.72
2023-05-22T14:03:26.095Z,28.71
2023-05-22T14:05:53.078Z,28.80
2023-05-22T14:08:19.804Z,29.02
2023-05-22T14:10:46.824Z,28.95
2023-05-22T14:13:13.625Z,28.54
2023-05-22T14:15:40.610Z,28.59
2023-05-22T14:18:07.640Z,28.44
2023-05-22T14:20:34.523Z,28.48
2023-05-22T14:23:01.179Z,28.63
2023-05-22T14:25:28.030Z,28.31
2023-05-22T14:27:54.947Z,28.44
2023-05-22T14:30:21.870Z,28.53
2023-05-22T14:32:48.935Z,28.61
2023-05-22T14:35:16.946Z,28.31
2023-05-22T14:37:43.977Z,28.54
2023-05-22T14:40:11.217Z,28.88
2023-05-22T14:42:37.989Z,29.05
2023-05-22T14:45:05.349Z,29.09
2023-05-22T14:47:32.014Z,28.88
2023-05-22T14:50:10.278Z,28.63
2023-05-22T14:52:45.407Z,28.57
2023-05-22T14:55:12.185Z,28.54
2023-05-22T14:57:38.946Z,28.69
2023-05-22T15:00:06.788Z,28.45
2023-05-22T15:02:33.606Z,27.97
2023-05-22T15:05:00.720Z,28.40
2023-05-22T15:07:35.952Z,28.36
2023-05-22T15:10:10.650Z,28.29
2023-05-22T15:12:37.420Z,28.30
2023-05-22T15:15:04.888Z,28.21
2023-05-22T15:17:31.676Z,28.16
2023-05-22T15:19:58.412Z,28.06
2023-05-22T15:22:25.342Z,27.98
2023-05-22T15:25:07.569Z,27.67
2023-05-22T15:27:35.499Z,27.78
2023-05-22T15:30:04.322Z,27.92
2023-05-22T15:32:34.466Z,27.69
2023-05-22T15:35:01.184Z,27.77
2023-05-22T15:37:30.216Z,27.87
2023-05-22T15:39:58.241Z,27.91
2023-05-22T15:42:25.146Z,27.90
2023-05-22T15:44:51.907Z,27.96
2023-05-22T15:47:19.232Z,27.71
2023-05-22T15:49:46.167Z,27.80
2023-05-22T15:52:12.843Z,27.67
2023-05-22T15:54:39.576Z,27.75
2023-05-22T15:57:06.507Z,27.65
2023-05-22T15:59:33.237Z,27.50
2023-05-22T16:02:00.059Z,27.27
2023-05-22T16:04:26.890Z,27.05
2023-05-22T16:06:53.969Z,26.95
2023-05-22T16:09:20.884Z,26.91
2023-05-22T16:11:47.653Z,26.76
2023-05-22T16:14:14.393Z,26.56
2023-05-22T16:16:41.531Z,26.49
2023-05-22T16:19:08.485Z,26.32
2023-05-22T16:21:35.222Z,26.27
2023-05-22T16:24:02.054Z,26.46
2023-05-22T16:26:28.772Z,26.26
2023-05-22T16:28:55.445Z,26.07
2023-05-22T16:31:22.589Z,26.02
2023-05-22T16:33:49.360Z,25.96
2023-05-22T16:36:16.135Z,26.12
2023-05-22T16:38:42.953Z,25.99
2023-05-22T16:41:09.654Z,25.94
2023-05-22T16:43:37.893Z,25.90
2023-05-22T16:46:04.897Z,25.75
2023-05-22T16:48:31.868Z,25.77
2023-05-22T16:50:58.864Z,25.88
2023-05-22T16:53:25.640Z,25.81
2023-05-22T16:55:52.667Z,25.74
2023-05-22T16:58:19.426Z,25.76
2023-05-22T17:00:46.226Z,25.69
2023-05-22T17:03:14.412Z,25.59
2023-05-22T17:05:41.449Z,25.61
2023-05-22T17:08:08.581Z,25.58
2023-05-22T17:10:35.638Z,25.57
2023-05-22T17:13:02.334Z,25.39
2023-05-22T17:15:29.098Z,25.19
2023-05-22T17:17:55.943Z,25.08
2023-05-22T17:20:23.269Z,24.64
2023-05-22T17:22:50.298Z,24.56
2023-05-22T17:25:17.265Z,24.60
2023-05-22T17:27:44.442Z,24.63
2023-05-22T17:30:11.648Z,24.62
2023-05-22T17:32:38.470Z,24.63
2023-05-22T17:35:07.060Z,24.39
2023-05-22T17:37:34.271Z,24.40
2023-05-22T17:40:01.276Z,24.48
2023-05-22T17:42:28.019Z,24.48
2023-05-22T17:44:54.796Z,24.36
2023-05-22T17:47:21.891Z,24.18
2023-05-22T17:49:48.835Z,24.10
2023-05-22T17:52:15.814Z,23.97
2023-05-22T17:54:42.505Z,23.82
2023-05-22T17:57:09.263Z,23.67
2023-05-22T17:59:37.895Z,23.50
2023-05-22T18:02:06.281Z,23.01
2023-05-22T18:04:36.872Z,22.54
2023-05-22T18:07:04.392Z,22.56
2023-05-22T18:09:31.103Z,22.56
2023-05-22T18:11:59.367Z,22.68
2023-05-22T18:14:26.263Z,22.60
2023-05-22T18:16:53.542Z,22.55
2023-05-22T18:19:20.192Z,22.40
2023-05-22T18:21:46.896Z,22.16
2023-05-22T18:24:13.719Z,22.29
2023-05-22T18:26:40.421Z,22.27
2023-05-22T18:29:07.118Z,22.42
2023-05-22T18:31:33.920Z,22.43
2023-05-22T18:34:00.746Z,22.55
2023-05-22T18:36:27.697Z,22.45
2023-05-22T18:38:54.394Z,22.46
2023-05-22T18:41:21.169Z,22.49
2023-05-22T18:43:47.842Z,22.49
2023-05-22T18:46:14.632Z,22.44
2023-05-22T18:48:41.557Z,22.26
2023-05-22T18:51:08.247Z,22.35
2023-05-22T18:53:34.935Z,22.31
2023-05-22T18:56:01.898Z,22.37
2023-05-22T18:58:28.609Z,22.39
2023-05-22T19:00:56.179Z,22.45
2023-05-22T19:03:23.120Z,22.19
2023-05-22T19:05:49.830Z,22.17
2023-05-22T19:08:16.507Z,22.14
2023-05-22T19:10:43.360Z,22.13
2023-05-22T19:13:10.179Z,22.12
2023-05-22T19:15:37.832Z,22.07
2023-05-22T19:18:04.682Z,22.06
2023-05-22T19:20:31.732Z,21.83
2023-05-22T19:22:58.716Z,21.73
2023-05-22T19:25:25.752Z,21.78
2023-05-22T19:27:52.540Z,21.78
2023-05-22T19:30:19.408Z,21.85
2023-05-22T19:32:47.012Z,21.73
2023-05-22T19:35:14.135Z,21.79
2023-05-22T19:37:40.804Z,21.81
2023-05-22T19:40:09.920Z,21.78
2023-05-22T19:42:37.690Z,21.68
2023-05-22T19:45:05.936Z,21.76
2023-05-22T19:47:32.796Z,21.52
2023-05-22T19:49:59.652Z,21.46
2023-05-22T19:52:29.244Z,21.50
2023-05-22T19:54:56.196Z,21.42
2023-05-22T19:57:22.948Z,21.47
2023-05-22T19:59:50.361Z,21.22
2023-05-22T20:02:17.197Z,20.91
2023-05-22T20:04:44.006Z,21.02
2023-05-22T20:07:10.856Z,20.92
2023-05-22T20:09:37.558Z,20.93
2023-05-22T20:12:04.432Z,20.95
2023-05-22T20:14:31.174Z,21.07
2023-05-22T20:16:59.263Z,21.04
2023-05-22T20:19:27.431Z,20.77
2023-05-22T20:21:54.356Z,20.48
2023-05-22T20:24:21.406Z,20.57
2023-05-22T20:26:48.187Z,20.68
2023-05-22T20:29:15.034Z,20.67
2023-05-22T20:31:42.256Z,20.63
2023-05-22T20:34:12.002Z,20.27
2023-05-22T20:36:39.575Z,20.14
2023-05-22T20:39:07.166Z,20.28
2023-05-22T20:41:34.114Z,20.31
2023-05-22T20:44:02.836Z,20.16
2023-05-22T20:46:29.740Z,20.17
2023-05-22T20:48:58.570Z,19.99
2023-05-22T20:51:32.666Z,19.83
2023-05-22T20:54:00.259Z,19.84
2023-05-22T20:56:27.338Z,19.72
2023-05-22T20:58:54.564Z,19.58
2023-05-22T21:01:21.556Z,19.53
2023-05-22T21:03:50.355Z,19.73
2023-05-22T21:06:17.474Z,19.61
2023-05-22T21:08:44.183Z,19.66
2023-05-22T21:11:11.003Z,19.61
2023-05-22T21:13:37.732Z,19.36
2023-05-22T21:16:04.641Z,19.16
2023-05-22T21:18:31.382Z,19.01
2023-05-22T21:20:58.141Z,18.84
2023-05-22T21:23:24.859Z,18.76
2023-05-22T21:25:51.693Z,18.88
2023-05-22T21:28:18.373Z,18.67
2023-05-22T21:30:45.213Z,18.65
2023-05-22T21:33:12.272Z,18.61
2023-05-22T21:35:39.311Z,18.42
2023-05-22T21:38:06.003Z,18.71
2023-05-22T21:40:32.715Z,18.80
2023-05-22T21:42:59.450Z,18.80
2023-05-22T21:45:26.113Z,18.84
2023-05-22T21:47:52.952Z,18.68
2023-05-22T21:50:19.749Z,18.80
2023-05-22T21:52:46.435Z,18.68
2023-05-22T21:55:13.149Z,18.62
2023-05-22T21:57:42.334Z,18.68
2023-05-22T22:00:09.941Z,18.64
2023-05-22T22:02:37.281Z,18.59
2023-05-22T22:05:04.728Z,18.30
2023-05-22T22:07:31.536Z,18.34
2023-05-22T22:09:59.130Z,18.20
2023-05-22T22:12:26.046Z,18.38
2023-05-22T22:14:52.815Z,18.51
2023-05-22T22:17:23.985Z,18.59
2023-05-22T22:19:53.775Z,18.67
2023-05-22T22:22:22.868Z,18.72
2023-05-22T22:24:49.727Z,18.68
2023-05-22T22:27:16.687Z,18.69
2023-05-22T22:29:44.148Z,18.72
2023-05-22T22:32:11.030Z,18.78
2023-05-22T22:34:38.076Z,18.91
2023-05-22T22:37:06.150Z,18.63
2023-05-22T22:39:32.837Z,18.47
2023-05-22T22:42:04.334Z,18.63
2023-05-22T22:44:32.438Z,18.38
2023-05-22T22:46:59.361Z,18.30
2023-05-22T22:49:26.048Z,18.24
2023-05-22T22:51:52.793Z,18.16
2023-05-22T22:54:19.853Z,18.21
2023-05-22T22:56:47.321Z,18.17
2023-05-22T22:59:14.074Z,18.06
2023-05-22T23:01:40.967Z,18.11
2023-05-22T23:04:07.961Z,18.11
2023-05-22T23:06:34.873Z,18.16
2023-05-22T23:09:03.599Z,18.07
2023-05-22T23:11:39.462Z,17.92
2023-05-22T23:14:10.012Z,17.99
2023-05-22T23:16:37.811Z,17.87
2023-05-22T23:19:04.906Z,17.85
2023-05-22T23:21:32.111Z,17.81
2023-05-22T23:23:59.607Z,17.90
2023-05-22T23:26:27.649Z,17.70
2023-05-22T23:28:54.739Z,17.72
2023-05-22T23:31:26.142Z,17.69
2023-05-22T23:33:53.336Z,17.60
2023-05-22T23:36:20.043Z,17.54
2023-05-22T23:38:47.343Z,17.61
2023-05-22T23:41:15.354Z,17.55
2023-05-22T23:43:42.497Z,17.55
2023-05-22T23:46:09.269Z,17.56
2023-05-22T23:48:36.220Z,17.54
2023-05-22T23:51:03.117Z,17.46
2023-05-22T23:53:29.860Z,17.48
2023-05-22T23:55:56.564Z,17.31
2023-05-22T23:58:23.520Z,17.31
